Terminal Aerodrome Forecast
Issued by NWS Melbourne, FL

Home | Current Version | Previous Version | Text Only | Print | Product List | Glossary On
Versions: 1 2 3 4 5 6 7 8 9 10 11 12 13 14
350
FTUS42 KMLB 232342
TAFMLB
TAF
KMLB 232342Z 2400/2424 17010KT P6SM SCT060 SCT100 BKN200
     FM240900 19014KT P6SM SCT035 BKN100
     FM241500 22016G24KT P6SM VCSH SCT025 BKN050
      TEMPO 2416/2419 VRB15G30KT 2SM TSRA BKN025CB=

USA.gov is the U.S. government's official web portal to all federal, state and local government web resources and services.